sensor_id;sensor_type;location;lat;lon;timestamp;P1;durP1;ratioP1;P2;durP2;ratioP2
6823;SDS011;58633;49.470;11.004;2022-07-18T00:01:38;4.68;;;1.95;;
6823;SDS011;58633;49.470;11.004;2022-07-18T00:04:04;4.32;;;2.25;;
6823;SDS011;58633;49.470;11.004;2022-07-18T00:06:29;3.08;;;2.10;;
6823;SDS011;58633;49.470;11.004;2022-07-18T00:08:55;2.90;;;2.00;;
6823;SDS011;58633;49.470;11.004;2022-07-18T00:11:21;5.05;;;1.95;;
6823;SDS011;58633;49.470;11.004;2022-07-18T00:13:47;4.72;;;1.95;;
6823;SDS011;58633;49.470;11.004;2022-07-18T00:16:15;4.25;;;2.03;;
6823;SDS011;58633;49.470;11.004;2022-07-18T00:18:41;4.45;;;2.20;;
6823;SDS011;58633;49.470;11.004;2022-07-18T00:21:06;2.60;;;2.00;;
6823;SDS011;58633;49.470;11.004;2022-07-18T00:23:32;4.45;;;2.00;;
6823;SDS011;58633;49.470;11.004;2022-07-18T00:25:58;2.47;;;2.10;;
6823;SDS011;58633;49.470;11.004;2022-07-18T00:28:24;3.78;;;2.10;;
6823;SDS011;58633;49.470;11.004;2022-07-18T00:30:50;5.78;;;1.90;;
6823;SDS011;58633;49.470;11.004;2022-07-18T00:33:15;4.20;;;2.05;;
6823;SDS011;58633;49.470;11.004;2022-07-18T00:35:41;4.30;;;2.00;;
6823;SDS011;58633;49.470;11.004;2022-07-18T00:38:07;3.70;;;2.10;;
6823;SDS011;58633;49.470;11.004;2022-07-18T00:40:32;5.35;;;2.13;;
6823;SDS011;58633;49.470;11.004;2022-07-18T00:42:58;3.38;;;1.70;;
6823;SDS011;58633;49.470;11.004;2022-07-18T00:45:24;3.00;;;1.70;;
6823;SDS011;58633;49.470;11.004;2022-07-18T00:47:51;3.47;;;1.80;;
6823;SDS011;58633;49.470;11.004;2022-07-18T00:50:17;4.05;;;1.95;;
6823;SDS011;58633;49.470;11.004;2022-07-18T00:52:46;3.15;;;1.90;;
6823;SDS011;58633;49.470;11.004;2022-07-18T00:55:12;1.90;;;1.60;;
6823;SDS011;58633;49.470;11.004;2022-07-18T00:57:39;2.33;;;1.70;;
6823;SDS011;58633;49.470;11.004;2022-07-18T01:00:07;3.80;;;1.80;;
6823;SDS011;58633;49.470;11.004;2022-07-18T01:02:52;2.28;;;1.60;;
6823;SDS011;58633;49.470;11.004;2022-07-18T01:05:18;3.83;;;1.60;;
6823;SDS011;58633;49.470;11.004;2022-07-18T01:07:44;2.83;;;1.60;;
6823;SDS011;58633;49.470;11.004;2022-07-18T01:10:09;2.60;;;1.50;;
6823;SDS011;58633;49.470;11.004;2022-07-18T01:12:35;3.63;;;1.75;;
6823;SDS011;58633;49.470;11.004;2022-07-18T01:15:00;4.00;;;1.90;;
6823;SDS011;58633;49.470;11.004;2022-07-18T01:17:27;3.40;;;1.73;;
6823;SDS011;58633;49.470;11.004;2022-07-18T01:19:52;1.98;;;1.40;;
6823;SDS011;58633;49.470;11.004;2022-07-18T01:22:18;2.80;;;1.45;;
6823;SDS011;58633;49.470;11.004;2022-07-18T01:24:45;4.13;;;1.98;;
6823;SDS011;58633;49.470;11.004;2022-07-18T01:27:17;1.85;;;1.58;;
6823;SDS011;58633;49.470;11.004;2022-07-18T01:29:45;2.85;;;1.58;;
6823;SDS011;58633;49.470;11.004;2022-07-18T01:32:11;2.22;;;1.52;;
6823;SDS011;58633;49.470;11.004;2022-07-18T01:34:38;4.43;;;2.28;;
6823;SDS011;58633;49.470;11.004;2022-07-18T01:37:04;3.78;;;1.63;;
6823;SDS011;58633;49.470;11.004;2022-07-18T01:39:31;3.85;;;1.70;;
6823;SDS011;58633;49.470;11.004;2022-07-18T01:41:58;2.40;;;1.77;;
6823;SDS011;58633;49.470;11.004;2022-07-18T01:44:25;1.83;;;1.60;;
6823;SDS011;58633;49.470;11.004;2022-07-18T01:46:51;2.28;;;1.67;;
6823;SDS011;58633;49.470;11.004;2022-07-18T01:49:17;3.53;;;1.75;;
6823;SDS011;58633;49.470;11.004;2022-07-18T01:51:44;3.35;;;2.10;;
6823;SDS011;58633;49.470;11.004;2022-07-18T01:54:14;3.30;;;1.73;;
6823;SDS011;58633;49.470;11.004;2022-07-18T01:56:39;2.92;;;1.40;;
6823;SDS011;58633;49.470;11.004;2022-07-18T01:59:05;2.92;;;1.83;;
6823;SDS011;58633;49.470;11.004;2022-07-18T02:01:31;2.05;;;1.70;;
6823;SDS011;58633;49.470;11.004;2022-07-18T02:03:57;2.95;;;1.60;;
6823;SDS011;58633;49.470;11.004;2022-07-18T02:06:22;3.10;;;1.70;;
6823;SDS011;58633;49.470;11.004;2022-07-18T02:08:48;2.35;;;1.60;;
6823;SDS011;58633;49.470;11.004;2022-07-18T02:11:13;5.47;;;2.05;;
6823;SDS011;58633;49.470;11.004;2022-07-18T02:13:39;3.97;;;1.90;;
6823;SDS011;58633;49.470;11.004;2022-07-18T02:16:05;3.63;;;1.70;;
6823;SDS011;58633;49.470;11.004;2022-07-18T02:18:31;1.75;;;1.60;;
6823;SDS011;58633;49.470;11.004;2022-07-18T02:21:00;3.95;;;2.03;;
6823;SDS011;58633;49.470;11.004;2022-07-18T02:23:26;3.15;;;1.75;;
6823;SDS011;58633;49.470;11.004;2022-07-18T02:25:53;2.67;;;1.77;;
6823;SDS011;58633;49.470;11.004;2022-07-18T02:28:19;2.75;;;1.80;;
6823;SDS011;58633;49.470;11.004;2022-07-18T02:30:44;2.63;;;1.70;;
6823;SDS011;58633;49.470;11.004;2022-07-18T02:33:10;2.78;;;1.48;;
6823;SDS011;58633;49.470;11.004;2022-07-18T02:35:35;2.30;;;1.77;;
6823;SDS011;58633;49.470;11.004;2022-07-18T02:38:01;3.28;;;2.20;;
6823;SDS011;58633;49.470;11.004;2022-07-18T02:40:27;2.40;;;1.80;;
6823;SDS011;58633;49.470;11.004;2022-07-18T02:42:52;2.25;;;2.00;;
6823;SDS011;58633;49.470;11.004;2022-07-18T02:45:19;3.65;;;1.98;;
6823;SDS011;58633;49.470;11.004;2022-07-18T02:47:44;7.40;;;2.05;;
6823;SDS011;58633;49.470;11.004;2022-07-18T02:50:11;3.17;;;1.65;;
6823;SDS011;58633;49.470;11.004;2022-07-18T02:52:38;3.63;;;1.90;;
6823;SDS011;58633;49.470;11.004;2022-07-18T02:55:04;6.97;;;1.90;;
6823;SDS011;58633;49.470;11.004;2022-07-18T02:57:30;6.03;;;2.30;;
6823;SDS011;58633;49.470;11.004;2022-07-18T02:59:56;4.57;;;1.75;;
6823;SDS011;58633;49.470;11.004;2022-07-18T03:02:21;3.25;;;2.00;;
6823;SDS011;58633;49.470;11.004;2022-07-18T03:04:47;5.13;;;1.70;;
6823;SDS011;58633;49.470;11.004;2022-07-18T03:07:12;3.58;;;1.77;;
6823;SDS011;58633;49.470;11.004;2022-07-18T03:09:38;3.25;;;1.85;;
6823;SDS011;58633;49.470;11.004;2022-07-18T03:12:03;3.50;;;2.10;;
6823;SDS011;58633;49.470;11.004;2022-07-18T03:14:29;2.70;;;1.80;;
6823;SDS011;58633;49.470;11.004;2022-07-18T03:16:55;3.20;;;2.30;;
6823;SDS011;58633;49.470;11.004;2022-07-18T03:19:20;4.18;;;2.33;;
6823;SDS011;58633;49.470;11.004;2022-07-18T03:21:46;4.60;;;1.85;;
6823;SDS011;58633;49.470;11.004;2022-07-18T03:24:12;5.35;;;1.88;;
6823;SDS011;58633;49.470;11.004;2022-07-18T03:26:41;3.63;;;1.90;;
6823;SDS011;58633;49.470;11.004;2022-07-18T03:29:07;3.38;;;1.80;;
6823;SDS011;58633;49.470;11.004;2022-07-18T03:31:33;4.60;;;1.90;;
6823;SDS011;58633;49.470;11.004;2022-07-18T03:34:00;3.65;;;2.00;;
6823;SDS011;58633;49.470;11.004;2022-07-18T03:36:25;3.92;;;2.05;;
6823;SDS011;58633;49.470;11.004;2022-07-18T03:38:51;2.08;;;1.80;;
6823;SDS011;58633;49.470;11.004;2022-07-18T03:41:16;3.33;;;2.00;;
6823;SDS011;58633;49.470;11.004;2022-07-18T03:43:42;7.50;;;2.00;;
6823;SDS011;58633;49.470;11.004;2022-07-18T03:46:07;3.45;;;1.90;;
6823;SDS011;58633;49.470;11.004;2022-07-18T03:48:33;3.40;;;1.90;;
6823;SDS011;58633;49.470;11.004;2022-07-18T03:50:59;4.50;;;2.08;;
6823;SDS011;58633;49.470;11.004;2022-07-18T03:53:25;4.03;;;1.52;;
6823;SDS011;58633;49.470;11.004;2022-07-18T03:55:51;2.92;;;1.70;;
6823;SDS011;58633;49.470;11.004;2022-07-18T03:58:17;2.97;;;1.92;;
6823;SDS011;58633;49.470;11.004;2022-07-18T04:00:43;2.20;;;1.98;;
6823;SDS011;58633;49.470;11.004;2022-07-18T04:03:08;3.42;;;1.85;;
6823;SDS011;58633;49.470;11.004;2022-07-18T04:05:34;2.50;;;1.95;;
6823;SDS011;58633;49.470;11.004;2022-07-18T04:08:00;3.88;;;1.83;;
6823;SDS011;58633;49.470;11.004;2022-07-18T04:10:26;3.25;;;1.73;;
6823;SDS011;58633;49.470;11.004;2022-07-18T04:12:53;2.55;;;2.05;;
6823;SDS011;58633;49.470;11.004;2022-07-18T04:15:20;2.40;;;2.20;;
6823;SDS011;58633;49.470;11.004;2022-07-18T04:17:47;3.60;;;2.00;;
6823;SDS011;58633;49.470;11.004;2022-07-18T04:20:13;3.95;;;2.03;;
6823;SDS011;58633;49.470;11.004;2022-07-18T04:22:43;3.70;;;1.80;;
6823;SDS011;58633;49.470;11.004;2022-07-18T04:25:32;3.38;;;2.10;;
6823;SDS011;58633;49.470;11.004;2022-07-18T04:28:02;3.30;;;1.92;;
6823;SDS011;58633;49.470;11.004;2022-07-18T04:30:28;2.08;;;1.88;;
6823;SDS011;58633;49.470;11.004;2022-07-18T04:32:54;4.25;;;1.90;;
6823;SDS011;58633;49.470;11.004;2022-07-18T04:35:21;2.45;;;2.17;;
6823;SDS011;58633;49.470;11.004;2022-07-18T04:37:49;2.88;;;2.10;;
6823;SDS011;58633;49.470;11.004;2022-07-18T04:40:16;2.80;;;2.17;;
6823;SDS011;58633;49.470;11.004;2022-07-18T04:42:42;5.22;;;1.90;;
6823;SDS011;58633;49.470;11.004;2022-07-18T04:45:08;4.95;;;2.60;;
6823;SDS011;58633;49.470;11.004;2022-07-18T04:47:34;2.88;;;2.20;;
6823;SDS011;58633;49.470;11.004;2022-07-18T04:50:00;3.58;;;2.22;;
6823;SDS011;58633;49.470;11.004;2022-07-18T04:52:26;2.72;;;2.30;;
6823;SDS011;58633;49.470;11.004;2022-07-18T04:54:51;5.28;;;2.20;;
6823;SDS011;58633;49.470;11.004;2022-07-18T04:57:17;3.55;;;2.20;;
6823;SDS011;58633;49.470;11.004;2022-07-18T04:59:43;5.38;;;2.50;;
6823;SDS011;58633;49.470;11.004;2022-07-18T05:02:09;2.35;;;2.15;;
6823;SDS011;58633;49.470;11.004;2022-07-18T05:04:38;3.65;;;2.38;;
6823;SDS011;58633;49.470;11.004;2022-07-18T05:07:06;3.53;;;2.30;;
6823;SDS011;58633;49.470;11.004;2022-07-18T05:09:32;2.63;;;2.17;;
6823;SDS011;58633;49.470;11.004;2022-07-18T05:11:57;3.45;;;2.28;;
6823;SDS011;58633;49.470;11.004;2022-07-18T05:14:23;2.72;;;2.30;;
6823;SDS011;58633;49.470;11.004;2022-07-18T05:16:49;2.67;;;2.30;;
6823;SDS011;58633;49.470;11.004;2022-07-18T05:19:15;5.40;;;2.42;;
6823;SDS011;58633;49.470;11.004;2022-07-18T05:21:41;7.22;;;3.00;;
6823;SDS011;58633;49.470;11.004;2022-07-18T05:24:10;8.45;;;3.67;;
6823;SDS011;58633;49.470;11.004;2022-07-18T05:26:36;5.90;;;3.17;;
6823;SDS011;58633;49.470;11.004;2022-07-18T05:29:02;5.20;;;2.80;;
6823;SDS011;58633;49.470;11.004;2022-07-18T05:31:28;4.63;;;2.67;;
6823;SDS011;58633;49.470;11.004;2022-07-18T05:33:54;7.40;;;2.75;;
6823;SDS011;58633;49.470;11.004;2022-07-18T05:36:20;7.47;;;4.10;;
6823;SDS011;58633;49.470;11.004;2022-07-18T05:38:46;5.25;;;2.97;;
6823;SDS011;58633;49.470;11.004;2022-07-18T05:41:11;11.50;;;3.35;;
6823;SDS011;58633;49.470;11.004;2022-07-18T05:43:37;7.78;;;3.13;;
6823;SDS011;58633;49.470;11.004;2022-07-18T05:46:03;5.18;;;2.83;;
6823;SDS011;58633;49.470;11.004;2022-07-18T05:48:29;5.40;;;2.70;;
6823;SDS011;58633;49.470;11.004;2022-07-18T05:50:56;9.35;;;3.03;;
6823;SDS011;58633;49.470;11.004;2022-07-18T05:53:21;7.03;;;2.45;;
6823;SDS011;58633;49.470;11.004;2022-07-18T05:55:47;10.10;;;2.90;;
6823;SDS011;58633;49.470;11.004;2022-07-18T05:58:13;5.85;;;2.92;;
6823;SDS011;58633;49.470;11.004;2022-07-18T06:00:39;6.72;;;2.53;;
6823;SDS011;58633;49.470;11.004;2022-07-18T06:03:05;6.60;;;2.97;;
6823;SDS011;58633;49.470;11.004;2022-07-18T06:05:31;7.18;;;2.83;;
6823;SDS011;58633;49.470;11.004;2022-07-18T06:07:56;7.93;;;2.92;;
6823;SDS011;58633;49.470;11.004;2022-07-18T06:10:22;6.30;;;2.90;;
6823;SDS011;58633;49.470;11.004;2022-07-18T06:12:49;5.00;;;2.95;;
6823;SDS011;58633;49.470;11.004;2022-07-18T06:15:15;6.65;;;2.40;;
6823;SDS011;58633;49.470;11.004;2022-07-18T06:17:41;4.20;;;2.65;;
6823;SDS011;58633;49.470;11.004;2022-07-18T06:20:07;4.45;;;2.47;;
6823;SDS011;58633;49.470;11.004;2022-07-18T06:22:33;4.88;;;2.88;;
6823;SDS011;58633;49.470;11.004;2022-07-18T06:25:00;5.90;;;2.60;;
6823;SDS011;58633;49.470;11.004;2022-07-18T06:27:26;5.38;;;3.05;;
6823;SDS011;58633;49.470;11.004;2022-07-18T06:29:53;5.18;;;2.60;;
6823;SDS011;58633;49.470;11.004;2022-07-18T06:32:19;6.43;;;2.63;;
6823;SDS011;58633;49.470;11.004;2022-07-18T06:34:45;9.05;;;2.80;;
6823;SDS011;58633;49.470;11.004;2022-07-18T06:37:10;8.70;;;3.15;;
6823;SDS011;58633;49.470;11.004;2022-07-18T06:39:36;17.95;;;4.07;;
6823;SDS011;58633;49.470;11.004;2022-07-18T06:42:02;8.85;;;2.70;;
6823;SDS011;58633;49.470;11.004;2022-07-18T06:44:28;4.95;;;2.67;;
6823;SDS011;58633;49.470;11.004;2022-07-18T06:46:54;7.43;;;2.90;;
6823;SDS011;58633;49.470;11.004;2022-07-18T06:49:22;7.13;;;2.70;;
6823;SDS011;58633;49.470;11.004;2022-07-18T06:51:48;4.60;;;2.40;;
6823;SDS011;58633;49.470;11.004;2022-07-18T06:54:13;5.93;;;2.60;;
6823;SDS011;58633;49.470;11.004;2022-07-18T06:56:39;13.10;;;2.80;;
6823;SDS011;58633;49.470;11.004;2022-07-18T06:59:06;7.35;;;2.38;;
6823;SDS011;58633;49.470;11.004;2022-07-18T07:01:32;9.13;;;2.67;;
6823;SDS011;58633;49.470;11.004;2022-07-18T07:03:58;5.35;;;2.80;;
6823;SDS011;58633;49.470;11.004;2022-07-18T07:06:24;5.03;;;2.42;;
6823;SDS011;58633;49.470;11.004;2022-07-18T07:08:49;5.32;;;2.50;;
6823;SDS011;58633;49.470;11.004;2022-07-18T07:11:16;2.60;;;2.40;;
6823;SDS011;58633;49.470;11.004;2022-07-18T07:13:41;5.80;;;2.35;;
6823;SDS011;58633;49.470;11.004;2022-07-18T07:16:07;5.63;;;2.53;;
6823;SDS011;58633;49.470;11.004;2022-07-18T07:18:33;5.03;;;2.72;;
6823;SDS011;58633;49.470;11.004;2022-07-18T07:20:58;5.28;;;2.90;;
6823;SDS011;58633;49.470;11.004;2022-07-18T07:23:24;6.68;;;2.13;;
6823;SDS011;58633;49.470;11.004;2022-07-18T07:25:51;4.10;;;2.30;;
6823;SDS011;58633;49.470;11.004;2022-07-18T07:28:16;3.50;;;2.72;;
6823;SDS011;58633;49.470;11.004;2022-07-18T07:30:43;4.38;;;2.42;;
6823;SDS011;58633;49.470;11.004;2022-07-18T07:33:10;3.70;;;2.20;;
6823;SDS011;58633;49.470;11.004;2022-07-18T07:35:35;4.45;;;2.47;;
6823;SDS011;58633;49.470;11.004;2022-07-18T07:38:01;2.88;;;2.20;;
6823;SDS011;58633;49.470;11.004;2022-07-18T07:40:28;4.47;;;2.15;;
6823;SDS011;58633;49.470;11.004;2022-07-18T07:43:11;3.47;;;2.10;;
6823;SDS011;58633;49.470;11.004;2022-07-18T07:45:38;4.15;;;2.35;;
6823;SDS011;58633;49.470;11.004;2022-07-18T07:48:04;4.70;;;2.40;;
6823;SDS011;58633;49.470;11.004;2022-07-18T07:50:31;5.35;;;2.15;;
6823;SDS011;58633;49.470;11.004;2022-07-18T07:52:57;4.10;;;2.10;;
6823;SDS011;58633;49.470;11.004;2022-07-18T07:55:23;5.28;;;2.20;;
6823;SDS011;58633;49.470;11.004;2022-07-18T07:57:49;6.20;;;2.38;;
6823;SDS011;58633;49.470;11.004;2022-07-18T08:00:14;5.90;;;2.40;;
6823;SDS011;58633;49.470;11.004;2022-07-18T08:02:50;6.03;;;2.10;;
6823;SDS011;58633;49.470;11.004;2022-07-18T08:05:18;8.23;;;2.28;;
6823;SDS011;58633;49.470;11.004;2022-07-18T08:07:43;7.65;;;2.30;;
6823;SDS011;58633;49.470;11.004;2022-07-18T08:10:10;4.40;;;2.10;;
6823;SDS011;58633;49.470;11.004;2022-07-18T08:12:35;10.95;;;2.72;;
6823;SDS011;58633;49.470;11.004;2022-07-18T08:15:01;8.25;;;2.30;;
6823;SDS011;58633;49.470;11.004;2022-07-18T08:17:27;8.45;;;2.20;;
6823;SDS011;58633;49.470;11.004;2022-07-18T08:19:53;6.25;;;2.50;;
6823;SDS011;58633;49.470;11.004;2022-07-18T08:22:19;8.00;;;3.08;;
6823;SDS011;58633;49.470;11.004;2022-07-18T08:24:45;1.92;;;1.75;;
6823;SDS011;58633;49.470;11.004;2022-07-18T08:27:11;2.63;;;1.90;;
6823;SDS011;58633;49.470;11.004;2022-07-18T08:29:38;6.95;;;2.30;;
6823;SDS011;58633;49.470;11.004;2022-07-18T08:32:05;6.07;;;1.90;;
6823;SDS011;58633;49.470;11.004;2022-07-18T08:34:30;3.88;;;2.35;;
6823;SDS011;58633;49.470;11.004;2022-07-18T08:36:56;5.15;;;2.08;;
6823;SDS011;58633;49.470;11.004;2022-07-18T08:39:22;5.25;;;2.40;;
6823;SDS011;58633;49.470;11.004;2022-07-18T08:41:49;5.80;;;2.22;;
6823;SDS011;58633;49.470;11.004;2022-07-18T08:44:16;7.03;;;2.20;;
6823;SDS011;58633;49.470;11.004;2022-07-18T08:46:48;4.13;;;2.15;;
6823;SDS011;58633;49.470;11.004;2022-07-18T08:49:15;4.57;;;2.55;;
6823;SDS011;58633;49.470;11.004;2022-07-18T08:51:42;3.58;;;2.00;;
6823;SDS011;58633;49.470;11.004;2022-07-18T08:54:08;2.88;;;2.00;;
6823;SDS011;58633;49.470;11.004;2022-07-18T08:56:35;4.00;;;1.80;;
6823;SDS011;58633;49.470;11.004;2022-07-18T08:59:00;9.50;;;2.30;;
6823;SDS011;58633;49.470;11.004;2022-07-18T09:01:27;3.47;;;1.85;;
6823;SDS011;58633;49.470;11.004;2022-07-18T09:03:54;4.90;;;2.00;;
6823;SDS011;58633;49.470;11.004;2022-07-18T09:06:57;6.47;;;1.98;;
6823;SDS011;58633;49.470;11.004;2022-07-18T09:09:23;8.00;;;1.90;;
6823;SDS011;58633;49.470;11.004;2022-07-18T09:11:58;6.57;;;2.03;;
6823;SDS011;58633;49.470;11.004;2022-07-18T09:19:31;4.43;;;1.50;;
6823;SDS011;58633;49.470;11.004;2022-07-18T09:22:10;3.00;;;1.48;;
6823;SDS011;58633;49.470;11.004;2022-07-18T09:27:26;3.95;;;1.38;;
6823;SDS011;58633;49.470;11.004;2022-07-18T09:30:06;2.53;;;1.35;;
6823;SDS011;58633;49.470;11.004;2022-07-18T09:32:43;2.17;;;1.23;;
6823;SDS011;58633;49.470;11.004;2022-07-18T09:35:17;1.42;;;1.20;;
6823;SDS011;58633;49.470;11.004;2022-07-18T09:37:51;1.42;;;1.20;;
6823;SDS011;58633;49.470;11.004;2022-07-18T09:40:39;3.28;;;1.17;;
6823;SDS011;58633;49.470;11.004;2022-07-18T09:43:15;1.45;;;1.35;;
6823;SDS011;58633;49.470;11.004;2022-07-18T09:45:43;1.63;;;1.00;;
6823;SDS011;58633;49.470;11.004;2022-07-18T09:48:20;1.30;;;1.10;;
6823;SDS011;58633;49.470;11.004;2022-07-18T09:50:56;1.60;;;0.90;;
6823;SDS011;58633;49.470;11.004;2022-07-18T09:53:41;1.00;;;0.90;;
6823;SDS011;58633;49.470;11.004;2022-07-18T09:56:08;0.98;;;0.95;;
6823;SDS011;58633;49.470;11.004;2022-07-18T10:01:05;3.00;;;0.88;;
6823;SDS011;58633;49.470;11.004;2022-07-18T10:03:32;1.13;;;0.80;;
6823;SDS011;58633;49.470;11.004;2022-07-18T10:05:58;1.40;;;1.20;;
6823;SDS011;58633;49.470;11.004;2022-07-18T10:08:26;3.92;;;1.08;;
6823;SDS011;58633;49.470;11.004;2022-07-18T10:10:53;3.30;;;1.00;;
6823;SDS011;58633;49.470;11.004;2022-07-18T10:13:21;2.88;;;0.75;;
6823;SDS011;58633;49.470;11.004;2022-07-18T10:15:47;2.05;;;0.95;;
6823;SDS011;58633;49.470;11.004;2022-07-18T10:18:16;1.38;;;0.93;;
6823;SDS011;58633;49.470;11.004;2022-07-18T10:26:21;1.00;;;0.88;;
6823;SDS011;58633;49.470;11.004;2022-07-18T10:31:22;1.75;;;0.88;;
6823;SDS011;58633;49.470;11.004;2022-07-18T10:33:52;1.42;;;0.85;;
6823;SDS011;58633;49.470;11.004;2022-07-18T10:36:19;2.22;;;0.77;;
6823;SDS011;58633;49.470;11.004;2022-07-18T10:41:28;2.85;;;0.95;;
6823;SDS011;58633;49.470;11.004;2022-07-18T10:43:55;3.40;;;1.10;;
6823;SDS011;58633;49.470;11.004;2022-07-18T10:46:20;1.40;;;0.80;;
6823;SDS011;58633;49.470;11.004;2022-07-18T10:48:50;1.40;;;1.00;;
6823;SDS011;58633;49.470;11.004;2022-07-18T10:51:17;2.33;;;1.00;;
6823;SDS011;58633;49.470;11.004;2022-07-18T11:01:51;0.95;;;0.85;;
6823;SDS011;58633;49.470;11.004;2022-07-18T11:06:56;1.63;;;1.00;;
6823;SDS011;58633;49.470;11.004;2022-07-18T11:09:44;1.50;;;1.13;;
6823;SDS011;58633;49.470;11.004;2022-07-18T11:15:03;2.70;;;1.00;;
6823;SDS011;58633;49.470;11.004;2022-07-18T11:23:05;4.97;;;1.02;;
6823;SDS011;58633;49.470;11.004;2022-07-18T11:25:40;10.57;;;1.58;;
6823;SDS011;58633;49.470;11.004;2022-07-18T11:28:09;1.80;;;1.00;;
6823;SDS011;58633;49.470;11.004;2022-07-18T11:30:37;1.58;;;0.95;;
6823;SDS011;58633;49.470;11.004;2022-07-18T11:33:03;1.80;;;1.10;;
6823;SDS011;58633;49.470;11.004;2022-07-18T11:35:30;2.10;;;0.90;;
6823;SDS011;58633;49.470;11.004;2022-07-18T11:37:56;1.23;;;0.95;;
6823;SDS011;58633;49.470;11.004;2022-07-18T11:40:28;1.70;;;1.13;;
6823;SDS011;58633;49.470;11.004;2022-07-18T11:42:55;1.27;;;1.00;;
6823;SDS011;58633;49.470;11.004;2022-07-18T11:45:21;2.97;;;1.00;;
6823;SDS011;58633;49.470;11.004;2022-07-18T11:47:48;3.13;;;1.20;;
6823;SDS011;58633;49.470;11.004;2022-07-18T11:50:16;2.85;;;1.00;;
6823;SDS011;58633;49.470;11.004;2022-07-18T11:52:54;2.92;;;0.90;;
6823;SDS011;58633;49.470;11.004;2022-07-18T11:55:31;1.80;;;1.35;;
6823;SDS011;58633;49.470;11.004;2022-07-18T11:58:07;1.60;;;0.90;;
6823;SDS011;58633;49.470;11.004;2022-07-18T12:00:37;1.63;;;0.80;;
6823;SDS011;58633;49.470;11.004;2022-07-18T12:03:05;12.48;;;1.60;;
6823;SDS011;58633;49.470;11.004;2022-07-18T12:05:40;2.75;;;1.10;;
6823;SDS011;58633;49.470;11.004;2022-07-18T12:08:27;2.63;;;1.00;;
6823;SDS011;58633;49.470;11.004;2022-07-18T12:11:08;2.08;;;1.00;;
6823;SDS011;58633;49.470;11.004;2022-07-18T12:13:52;3.03;;;1.23;;
6823;SDS011;58633;49.470;11.004;2022-07-18T12:18:52;1.30;;;0.90;;
6823;SDS011;58633;49.470;11.004;2022-07-18T12:21:21;2.28;;;0.98;;
6823;SDS011;58633;49.470;11.004;2022-07-18T12:23:47;2.10;;;0.90;;
6823;SDS011;58633;49.470;11.004;2022-07-18T12:26:26;1.42;;;0.90;;
6823;SDS011;58633;49.470;11.004;2022-07-18T12:29:09;1.92;;;1.00;;
6823;SDS011;58633;49.470;11.004;2022-07-18T12:31:36;3.85;;;1.20;;
6823;SDS011;58633;49.470;11.004;2022-07-18T12:36:57;2.45;;;0.90;;
6823;SDS011;58633;49.470;11.004;2022-07-18T12:39:32;2.17;;;1.00;;
6823;SDS011;58633;49.470;11.004;2022-07-18T12:41:58;1.73;;;0.65;;
6823;SDS011;58633;49.470;11.004;2022-07-18T12:44:25;0.80;;;0.70;;
6823;SDS011;58633;49.470;11.004;2022-07-18T12:46:52;1.27;;;1.00;;
6823;SDS011;58633;49.470;11.004;2022-07-18T12:49:17;0.80;;;0.80;;
6823;SDS011;58633;49.470;11.004;2022-07-18T12:51:43;0.82;;;0.82;;
6823;SDS011;58633;49.470;11.004;2022-07-18T12:54:08;1.40;;;0.80;;
6823;SDS011;58633;49.470;11.004;2022-07-18T12:56:34;0.75;;;0.73;;
6823;SDS011;58633;49.470;11.004;2022-07-18T12:59:00;0.70;;;0.70;;
6823;SDS011;58633;49.470;11.004;2022-07-18T13:01:26;1.35;;;0.90;;
6823;SDS011;58633;49.470;11.004;2022-07-18T13:03:52;0.90;;;0.90;;
6823;SDS011;58633;49.470;11.004;2022-07-18T13:06:18;4.20;;;0.90;;
6823;SDS011;58633;49.470;11.004;2022-07-18T13:08:43;0.70;;;0.70;;
6823;SDS011;58633;49.470;11.004;2022-07-18T13:11:10;1.00;;;0.90;;
6823;SDS011;58633;49.470;11.004;2022-07-18T13:13:36;0.70;;;0.68;;
6823;SDS011;58633;49.470;11.004;2022-07-18T13:16:02;1.33;;;0.80;;
6823;SDS011;58633;49.470;11.004;2022-07-18T13:18:28;0.77;;;0.70;;
6823;SDS011;58633;49.470;11.004;2022-07-18T13:20:53;1.40;;;0.70;;
6823;SDS011;58633;49.470;11.004;2022-07-18T13:23:19;1.23;;;0.70;;
6823;SDS011;58633;49.470;11.004;2022-07-18T13:25:45;2.85;;;0.93;;
6823;SDS011;58633;49.470;11.004;2022-07-18T13:28:10;2.30;;;1.00;;
6823;SDS011;58633;49.470;11.004;2022-07-18T13:30:36;0.95;;;0.70;;
6823;SDS011;58633;49.470;11.004;2022-07-18T13:33:03;1.23;;;0.80;;
6823;SDS011;58633;49.470;11.004;2022-07-18T13:35:29;1.10;;;0.73;;
6823;SDS011;58633;49.470;11.004;2022-07-18T13:37:54;0.80;;;0.77;;
6823;SDS011;58633;49.470;11.004;2022-07-18T13:40:20;1.65;;;0.75;;
6823;SDS011;58633;49.470;11.004;2022-07-18T13:42:46;1.60;;;1.00;;
6823;SDS011;58633;49.470;11.004;2022-07-18T13:45:12;1.63;;;0.60;;
6823;SDS011;58633;49.470;11.004;2022-07-18T13:47:41;0.73;;;0.73;;
6823;SDS011;58633;49.470;11.004;2022-07-18T13:50:07;0.88;;;0.88;;
6823;SDS011;58633;49.470;11.004;2022-07-18T13:52:34;1.52;;;0.73;;
6823;SDS011;58633;49.470;11.004;2022-07-18T13:55:00;0.65;;;0.65;;
6823;SDS011;58633;49.470;11.004;2022-07-18T13:57:26;0.80;;;0.80;;
6823;SDS011;58633;49.470;11.004;2022-07-18T13:59:51;0.85;;;0.80;;
6823;SDS011;58633;49.470;11.004;2022-07-18T14:02:17;1.08;;;0.70;;
6823;SDS011;58633;49.470;11.004;2022-07-18T14:04:43;1.23;;;0.65;;
6823;SDS011;58633;49.470;11.004;2022-07-18T14:07:09;1.25;;;0.70;;
6823;SDS011;58633;49.470;11.004;2022-07-18T14:09:37;1.02;;;0.77;;
6823;SDS011;58633;49.470;11.004;2022-07-18T14:12:03;2.10;;;0.80;;
6823;SDS011;58633;49.470;11.004;2022-07-18T14:14:30;2.92;;;0.75;;
6823;SDS011;58633;49.470;11.004;2022-07-18T14:16:55;8.07;;;1.30;;
6823;SDS011;58633;49.470;11.004;2022-07-18T14:19:21;3.38;;;1.00;;
6823;SDS011;58633;49.470;11.004;2022-07-18T14:21:47;0.80;;;0.80;;
6823;SDS011;58633;49.470;11.004;2022-07-18T14:24:13;1.40;;;0.90;;
6823;SDS011;58633;49.470;11.004;2022-07-18T14:26:39;1.27;;;0.70;;
6823;SDS011;58633;49.470;11.004;2022-07-18T14:29:04;0.80;;;0.80;;
6823;SDS011;58633;49.470;11.004;2022-07-18T14:31:30;2.95;;;0.70;;
6823;SDS011;58633;49.470;11.004;2022-07-18T14:33:55;2.92;;;0.80;;
6823;SDS011;58633;49.470;11.004;2022-07-18T14:36:21;3.58;;;0.80;;
6823;SDS011;58633;49.470;11.004;2022-07-18T14:38:46;1.65;;;0.90;;
6823;SDS011;58633;49.470;11.004;2022-07-18T14:41:12;0.90;;;0.90;;
6823;SDS011;58633;49.470;11.004;2022-07-18T14:43:39;0.90;;;0.90;;
6823;SDS011;58633;49.470;11.004;2022-07-18T14:46:04;1.70;;;0.68;;
6823;SDS011;58633;49.470;11.004;2022-07-18T14:48:30;0.70;;;0.70;;
6823;SDS011;58633;49.470;11.004;2022-07-18T14:50:57;2.58;;;0.90;;
6823;SDS011;58633;49.470;11.004;2022-07-18T14:53:23;1.42;;;0.77;;
6823;SDS011;58633;49.470;11.004;2022-07-18T14:55:49;3.15;;;1.17;;
6823;SDS011;58633;49.470;11.004;2022-07-18T14:58:14;1.42;;;0.70;;
6823;SDS011;58633;49.470;11.004;2022-07-18T15:00:40;2.33;;;0.80;;
6823;SDS011;58633;49.470;11.004;2022-07-18T15:03:05;4.47;;;0.90;;
6823;SDS011;58633;49.470;11.004;2022-07-18T15:05:31;0.95;;;0.90;;
6823;SDS011;58633;49.470;11.004;2022-07-18T15:07:56;0.75;;;0.70;;
6823;SDS011;58633;49.470;11.004;2022-07-18T15:10:23;2.92;;;0.90;;
6823;SDS011;58633;49.470;11.004;2022-07-18T15:12:49;1.63;;;0.95;;
6823;SDS011;58633;49.470;11.004;2022-07-18T15:15:14;2.67;;;0.70;;
6823;SDS011;58633;49.470;11.004;2022-07-18T15:17:40;0.77;;;0.77;;
6823;SDS011;58633;49.470;11.004;2022-07-18T15:20:07;2.15;;;0.68;;
6823;SDS011;58633;49.470;11.004;2022-07-18T15:22:33;0.70;;;0.70;;
6823;SDS011;58633;49.470;11.004;2022-07-18T15:24:59;1.10;;;1.00;;
6823;SDS011;58633;49.470;11.004;2022-07-18T15:27:25;1.17;;;0.73;;
6823;SDS011;58633;49.470;11.004;2022-07-18T15:29:51;0.75;;;0.75;;
6823;SDS011;58633;49.470;11.004;2022-07-18T15:32:17;0.88;;;0.88;;
6823;SDS011;58633;49.470;11.004;2022-07-18T15:34:43;1.35;;;0.70;;